createdAt,value
2022-11-05T00:02:03.431Z,4.13
2022-11-05T00:04:50.424Z,4.50
2022-11-05T00:07:44.032Z,3.78
2022-11-05T00:10:29.247Z,3.20
2022-11-05T00:13:18.147Z,4.65
2022-11-05T00:16:05.447Z,3.28
2022-11-05T00:18:33.765Z,3.53
2022-11-05T00:21:02.143Z,3.08
2022-11-05T00:23:49.027Z,3.17
2022-11-05T00:26:17.301Z,3.63
2022-11-05T00:28:45.611Z,3.00
2022-11-05T00:31:14.495Z,3.22
2022-11-05T00:33:43.408Z,3.60
2022-11-05T00:36:12.991Z,3.53
2022-11-05T00:38:43.427Z,3.00
2022-11-05T00:41:11.885Z,3.53
2022-11-05T00:43:58.682Z,3.70
2022-11-05T00:46:27.150Z,3.17
2022-11-05T00:49:14.035Z,3.33
2022-11-05T00:51:45.715Z,3.05
2022-11-05T00:54:14.060Z,2.95
2022-11-05T00:56:42.347Z,4.07
2022-11-05T00:59:10.656Z,2.72
2022-11-05T01:01:39.050Z,4.20
2022-11-05T01:04:07.446Z,3.80
2022-11-05T01:06:35.876Z,3.08
2022-11-05T01:09:04.355Z,3.47
2022-11-05T01:11:37.370Z,3.33
2022-11-05T01:14:10.037Z,2.70
2022-11-05T01:16:39.598Z,3.08
2022-11-05T01:19:10.597Z,3.20
2022-11-05T01:21:39.425Z,2.60
2022-11-05T01:24:10.773Z,2.97
2022-11-05T01:26:39.055Z,3.50
2022-11-05T01:29:07.378Z,3.22
2022-11-05T01:31:36.240Z,3.70
2022-11-05T01:34:04.677Z,2.63
2022-11-05T01:36:33.032Z,3.20
2022-11-05T01:39:02.003Z,3.35
2022-11-05T01:41:30.661Z,3.25
2022-11-05T01:44:00.167Z,3.08
2022-11-05T01:46:36.745Z,2.80
2022-11-05T01:49:18.348Z,3.03
2022-11-05T01:51:47.099Z,3.15
2022-11-05T01:54:21.204Z,3.10
2022-11-05T01:56:55.370Z,4.55
2022-11-05T01:59:30.210Z,3.50
2022-11-05T02:02:01.802Z,3.50
2022-11-05T02:04:41.108Z,3.17
2022-11-05T02:07:11.138Z,3.53
2022-11-05T02:09:55.743Z,3.70
2022-11-05T02:12:28.985Z,3.05
2022-11-05T02:14:58.959Z,3.17
2022-11-05T02:17:42.585Z,3.63
2022-11-05T02:20:32.816Z,3.20
2022-11-05T02:23:28.730Z,3.15
2022-11-05T02:26:03.001Z,2.47
2022-11-05T02:28:58.256Z,3.28
2022-11-05T02:31:47.662Z,3.15
2022-11-05T02:34:40.316Z,3.20
2022-11-05T02:37:39.146Z,3.17
2022-11-05T02:40:17.748Z,3.08
2022-11-05T02:42:58.646Z,2.78
2022-11-05T02:48:30.127Z,2.42
2022-11-05T02:51:04.518Z,2.88
2022-11-05T02:53:59.660Z,2.58
2022-11-05T02:56:32.683Z,2.10
2022-11-05T02:59:01.083Z,2.78
2022-11-05T03:01:29.681Z,3.10
2022-11-05T03:04:03.157Z,2.38
2022-11-05T03:06:56.844Z,2.75
2022-11-05T03:09:25.154Z,2.22
2022-11-05T03:12:17.924Z,2.42
2022-11-05T03:15:23.900Z,2.97
2022-11-05T03:18:23.056Z,2.58
2022-11-05T03:21:07.730Z,2.45
2022-11-05T03:24:08.314Z,1.67
2022-11-05T03:26:49.048Z,2.40
2022-11-05T03:29:25.556Z,2.53
2022-11-05T03:31:56.884Z,2.50
2022-11-05T03:34:35.429Z,2.58
2022-11-05T03:37:06.352Z,2.00
2022-11-05T03:39:45.531Z,2.72
2022-11-05T03:42:18.552Z,2.08
2022-11-05T03:44:52.802Z,2.60
2022-11-05T03:47:35.805Z,2.17
2022-11-05T03:50:13.156Z,1.90
2022-11-05T03:52:59.561Z,3.25
2022-11-05T03:55:35.561Z,2.28
2022-11-05T03:58:05.996Z,2.20
2022-11-05T04:00:36.028Z,2.20
2022-11-05T04:03:04.386Z,3.07
2022-11-05T04:05:33.162Z,2.22
2022-11-05T04:08:20.320Z,2.28
2022-11-05T04:11:07.285Z,1.92
2022-11-05T04:13:35.964Z,2.40
2022-11-05T04:16:22.906Z,3.40
2022-11-05T04:18:51.363Z,2.20
2022-11-05T04:21:38.670Z,1.88
2022-11-05T04:24:10.303Z,2.15
2022-11-05T04:26:40.948Z,2.22
2022-11-05T04:29:28.490Z,2.40
2022-11-05T04:31:57.397Z,1.90
2022-11-05T04:34:25.899Z,1.80
2022-11-05T04:36:54.250Z,1.83
2022-11-05T04:39:22.604Z,1.92
2022-11-05T04:41:51.154Z,1.92
2022-11-05T04:44:19.475Z,2.33
2022-11-05T04:46:47.752Z,1.67
2022-11-05T04:49:16.042Z,2.47
2022-11-05T04:51:44.312Z,2.33
2022-11-05T04:54:12.670Z,2.00
2022-11-05T04:56:42.068Z,2.25
2022-11-05T04:59:10.707Z,2.25
2022-11-05T05:01:39.195Z,2.28
2022-11-05T05:04:07.680Z,2.38
2022-11-05T05:06:38.402Z,2.38
2022-11-05T05:09:07.105Z,2.08
2022-11-05T05:11:35.483Z,2.50
2022-11-05T05:14:03.928Z,2.83
2022-11-05T05:16:32.247Z,2.47
2022-11-05T05:19:01.082Z,2.85
2022-11-05T05:21:42.600Z,2.58
2022-11-05T05:24:13.708Z,2.60
2022-11-05T05:26:45.087Z,2.58
2022-11-05T05:29:13.973Z,2.50
2022-11-05T05:31:43.053Z,3.30
2022-11-05T05:34:13.434Z,2.75
2022-11-05T05:36:41.899Z,3.13
2022-11-05T05:39:11.104Z,2.90
2022-11-05T05:41:40.133Z,2.95
2022-11-05T05:44:08.444Z,3.70
2022-11-05T05:46:36.789Z,2.85
2022-11-05T05:49:09.535Z,2.85
2022-11-05T05:51:41.166Z,3.22
2022-11-05T05:54:10.975Z,3.10
2022-11-05T05:56:39.449Z,2.97
2022-11-05T05:59:07.751Z,3.42
2022-11-05T06:01:42.583Z,3.53
2022-11-05T06:04:14.570Z,3.30
2022-11-05T06:06:46.801Z,4.20
2022-11-05T06:09:15.539Z,4.43
2022-11-05T06:11:43.890Z,4.80
2022-11-05T06:14:13.446Z,5.03
2022-11-05T06:16:41.763Z,5.18
2022-11-05T06:19:10.239Z,5.20
2022-11-05T06:21:39.207Z,5.53
2022-11-05T06:24:07.991Z,5.10
2022-11-05T06:26:42.629Z,5.97
2022-11-05T06:29:11.147Z,6.25
2022-11-05T06:31:39.500Z,5.38
2022-11-05T06:34:08.513Z,5.70
2022-11-05T06:36:36.798Z,5.45
2022-11-05T06:39:11.193Z,6.05
2022-11-05T06:42:03.931Z,5.75
2022-11-05T06:44:28.158Z,5.70
2022-11-05T06:46:56.725Z,5.90
2022-11-05T06:49:28.073Z,5.63
2022-11-05T06:51:57.892Z,6.47
2022-11-05T06:54:26.819Z,5.33
2022-11-05T06:56:55.155Z,6.18
2022-11-05T06:59:23.477Z,5.20
2022-11-05T07:01:51.945Z,4.68
2022-11-05T07:04:20.406Z,4.70
2022-11-05T07:06:48.690Z,5.10
2022-11-05T07:09:17.108Z,4.80
2022-11-05T07:11:45.485Z,5.30
2022-11-05T07:14:13.931Z,4.95
2022-11-05T07:16:42.217Z,4.82
2022-11-05T07:19:10.664Z,4.85
2022-11-05T07:21:41.706Z,4.97
2022-11-05T07:24:14.423Z,4.72
2022-11-05T07:26:42.820Z,3.67
2022-11-05T07:29:11.179Z,4.95
2022-11-05T07:31:39.461Z,5.00
2022-11-05T07:34:08.192Z,4.45
2022-11-05T07:36:39.361Z,5.00
2022-11-05T07:39:07.861Z,5.30
2022-11-05T07:41:36.194Z,4.53
2022-11-05T07:44:05.038Z,4.50
2022-11-05T07:46:33.675Z,4.88
2022-11-05T07:49:02.431Z,4.95
2022-11-05T07:51:30.792Z,5.05
2022-11-05T07:53:59.279Z,4.60
2022-11-05T07:56:28.223Z,4.50
2022-11-05T07:59:00.718Z,4.82
2022-11-05T08:01:29.395Z,4.82
2022-11-05T08:03:58.327Z,4.22
2022-11-05T08:06:29.536Z,4.53
2022-11-05T08:08:59.962Z,4.53
2022-11-05T08:11:35.857Z,4.35
2022-11-05T08:14:05.565Z,5.43
2022-11-05T08:16:34.161Z,4.95
2022-11-05T08:19:02.467Z,4.53
2022-11-05T08:21:30.909Z,4.60
2022-11-05T08:23:59.239Z,4.40
2022-11-05T08:26:27.575Z,4.00
2022-11-05T08:28:55.924Z,4.82
2022-11-05T08:31:27.926Z,4.72
2022-11-05T08:34:02.277Z,4.53
2022-11-05T08:36:35.836Z,4.18
2022-11-05T08:39:04.388Z,4.35
2022-11-05T08:41:32.951Z,4.65
2022-11-05T08:44:01.867Z,4.40
2022-11-05T08:46:31.937Z,4.97
2022-11-05T08:49:00.379Z,4.25
2022-11-05T08:51:28.953Z,4.57
2022-11-05T08:53:58.940Z,4.15
2022-11-05T08:56:27.672Z,3.42
2022-11-05T08:58:56.109Z,4.43
2022-11-05T09:01:24.542Z,4.20
2022-11-05T09:03:53.105Z,4.63
2022-11-05T09:06:21.622Z,3.67
2022-11-05T09:08:50.365Z,3.75
2022-11-05T09:11:18.679Z,3.80
2022-11-05T09:13:47.258Z,3.72
2022-11-05T09:16:25.335Z,3.42
2022-11-05T09:18:54.317Z,3.67
2022-11-05T09:21:23.319Z,3.67
2022-11-05T09:23:51.840Z,3.22
2022-11-05T09:26:20.387Z,3.50
2022-11-05T09:28:48.732Z,5.47
2022-11-05T09:31:17.257Z,3.40
2022-11-05T09:33:45.968Z,3.67
2022-11-05T09:36:14.324Z,3.63
2022-11-05T09:38:43.063Z,3.50
2022-11-05T09:41:21.001Z,3.38
2022-11-05T09:43:53.498Z,3.40
2022-11-05T09:46:28.245Z,3.22
2022-11-05T09:49:06.750Z,3.45
2022-11-05T09:51:39.731Z,3.53
2022-11-05T09:54:11.986Z,3.30
2022-11-05T09:56:42.134Z,2.88
2022-11-05T09:59:24.908Z,3.33
2022-11-05T10:02:12.496Z,2.80
2022-11-05T10:04:45.036Z,2.78
2022-11-05T10:07:18.207Z,2.90
2022-11-05T10:09:51.535Z,2.92
2022-11-05T10:12:46.672Z,2.20
2022-11-05T10:15:37.288Z,2.92
2022-11-05T10:18:32.848Z,2.28
2022-11-05T10:21:05.814Z,2.60
2022-11-05T10:23:34.561Z,3.10
2022-11-05T10:26:07.852Z,2.75
2022-11-05T10:28:36.548Z,2.58
2022-11-05T10:31:12.594Z,2.70
2022-11-05T10:34:06.155Z,2.42
2022-11-05T10:36:37.148Z,2.03
2022-11-05T10:39:17.803Z,2.50
2022-11-05T10:44:32.311Z,2.22
2022-11-05T10:47:38.372Z,2.22
2022-11-05T10:50:18.395Z,2.55
2022-11-05T10:53:02.001Z,2.40
2022-11-05T10:55:35.580Z,2.20
2022-11-05T10:58:10.290Z,2.83
2022-11-05T11:00:39.731Z,1.77
2022-11-05T11:03:44.438Z,2.20
2022-11-05T11:06:27.580Z,2.15
2022-11-05T11:08:57.982Z,2.20
2022-11-05T11:11:34.659Z,2.08
2022-11-05T11:14:19.852Z,2.00
2022-11-05T11:16:57.821Z,2.50
2022-11-05T11:19:35.149Z,2.00
2022-11-05T11:22:03.534Z,2.20
2022-11-05T11:24:37.846Z,2.50
2022-11-05T11:27:33.394Z,1.77
2022-11-05T11:30:05.037Z,1.75
2022-11-05T11:32:37.668Z,2.00
2022-11-05T11:35:08.630Z,1.90
2022-11-05T11:37:42.913Z,1.67
2022-11-05T11:40:21.129Z,1.70
2022-11-05T11:42:55.676Z,2.30
2022-11-05T11:45:27.956Z,2.22
2022-11-05T11:47:58.002Z,1.90
2022-11-05T11:50:39.453Z,1.88
2022-11-05T11:53:20.625Z,2.08
2022-11-05T11:55:55.078Z,1.73
2022-11-05T11:58:35.511Z,2.17
2022-11-05T12:01:37.289Z,1.90
2022-11-05T12:04:13.517Z,2.00
2022-11-05T12:07:13.264Z,2.47
2022-11-05T12:09:47.551Z,2.30
2022-11-05T12:12:22.314Z,2.10
2022-11-05T12:15:15.551Z,2.20
2022-11-05T12:17:53.243Z,1.77
2022-11-05T12:20:42.974Z,2.58
2022-11-05T12:23:39.929Z,2.25
2022-11-05T12:26:52.145Z,1.85
2022-11-05T12:30:08.160Z,1.25
2022-11-05T12:32:58.509Z,1.52
2022-11-05T12:38:09.616Z,1.42
2022-11-05T12:40:56.149Z,1.70
2022-11-05T12:43:35.356Z,2.42
2022-11-05T12:46:38.293Z,1.75
2022-11-05T12:49:16.339Z,1.40
2022-11-05T12:52:09.461Z,1.70
2022-11-05T12:55:03.351Z,1.42
2022-11-05T12:57:35.955Z,1.35
2022-11-05T13:00:24.431Z,1.00
2022-11-05T13:03:07.323Z,1.35
2022-11-05T13:06:01.581Z,1.20
2022-11-05T13:08:44.283Z,1.20
2022-11-05T13:11:54.810Z,1.20
2022-11-05T13:14:41.503Z,0.93
2022-11-05T13:17:23.511Z,0.88
2022-11-05T13:20:17.307Z,1.00
2022-11-05T13:22:51.004Z,1.10
2022-11-05T13:25:29.008Z,0.95
2022-11-05T13:28:12.647Z,0.80
2022-11-05T13:30:46.623Z,1.13
2022-11-05T13:33:19.679Z,1.08
2022-11-05T13:36:34.899Z,1.08
2022-11-05T13:39:10.426Z,1.58
2022-11-05T13:42:01.235Z,0.90
2022-11-05T13:47:32.286Z,1.08
2022-11-05T13:50:19.004Z,0.98
2022-11-05T13:53:26.045Z,1.10
2022-11-05T13:56:16.160Z,1.33
2022-11-05T13:59:12.610Z,1.20
2022-11-05T14:01:54.187Z,0.88
2022-11-05T14:04:32.023Z,1.20
2022-11-05T14:07:18.192Z,1.75
2022-11-05T14:09:53.506Z,1.40
2022-11-05T14:12:39.044Z,1.50
2022-11-05T14:15:23.553Z,1.40
2022-11-05T14:18:06.170Z,1.50
2022-11-05T14:20:34.490Z,1.90
2022-11-05T14:23:22.448Z,1.77
2022-11-05T14:26:17.870Z,1.75
2022-11-05T14:28:50.190Z,1.65
2022-11-05T14:31:19.437Z,1.92
2022-11-05T14:34:09.772Z,2.08
2022-11-05T14:36:40.396Z,1.52
2022-11-05T14:39:28.011Z,1.58
2022-11-05T14:42:15.913Z,1.40
2022-11-05T14:45:02.956Z,1.65
2022-11-05T14:47:43.017Z,1.30
2022-11-05T14:50:35.568Z,1.80
2022-11-05T14:53:12.974Z,1.92
2022-11-05T14:55:43.598Z,2.25
2022-11-05T14:58:26.093Z,2.47
2022-11-05T15:00:56.544Z,2.50
2022-11-05T15:03:50.677Z,2.55
2022-11-05T15:06:20.561Z,2.63
2022-11-05T15:08:48.880Z,2.80
2022-11-05T15:11:35.637Z,2.92
2022-11-05T15:14:26.360Z,3.28
2022-11-05T15:16:58.817Z,3.03
2022-11-05T15:19:33.927Z,3.08
2022-11-05T15:22:06.592Z,3.15
2022-11-05T15:24:35.577Z,3.47
2022-11-05T15:27:22.809Z,3.10
2022-11-05T15:29:51.259Z,3.42
2022-11-05T15:32:25.734Z,3.58
2022-11-05T15:34:56.159Z,4.03
2022-11-05T15:37:26.892Z,3.50
2022-11-05T15:39:55.850Z,3.08
2022-11-05T15:42:26.672Z,3.50
2022-11-05T15:44:57.474Z,3.42
2022-11-05T15:47:27.012Z,3.75
2022-11-05T15:50:01.381Z,3.20
2022-11-05T15:52:42.346Z,3.00
2022-11-05T15:55:12.009Z,3.28
2022-11-05T15:57:51.515Z,3.65
2022-11-05T16:00:23.194Z,3.70
2022-11-05T16:02:57.226Z,3.25
2022-11-05T16:05:30.674Z,3.17
2022-11-05T16:08:04.487Z,3.58
2022-11-05T16:10:38.080Z,4.20
2022-11-05T16:13:29.060Z,4.13
2022-11-05T16:16:00.654Z,4.00
2022-11-05T16:18:40.546Z,4.55
2022-11-05T16:21:08.914Z,4.00
2022-11-05T16:23:41.441Z,4.47
2022-11-05T16:29:39.361Z,3.83
2022-11-05T16:32:25.425Z,3.67
2022-11-05T16:35:01.555Z,3.85
2022-11-05T16:37:36.862Z,3.80
2022-11-05T16:40:15.690Z,5.28
2022-11-05T16:42:48.305Z,3.97
2022-11-05T16:45:18.945Z,4.38
2022-11-05T16:47:48.542Z,4.13
2022-11-05T16:50:26.142Z,4.35
2022-11-05T16:52:54.695Z,3.92
2022-11-05T16:55:23.727Z,4.07
2022-11-05T16:57:54.955Z,4.25
2022-11-05T17:00:25.482Z,3.67
2022-11-05T17:02:54.162Z,3.67
2022-11-05T17:05:24.534Z,4.53
2022-11-05T17:07:53.438Z,4.50
2022-11-05T17:10:23.348Z,4.60
2022-11-05T17:12:52.495Z,4.30
2022-11-05T17:15:25.232Z,4.30
2022-11-05T17:17:54.966Z,5.10
2022-11-05T17:20:40.477Z,5.00
2022-11-05T17:23:15.814Z,4.85
2022-11-05T17:25:48.908Z,5.90
2022-11-05T17:28:18.338Z,5.38
2022-11-05T17:30:52.298Z,5.57
2022-11-05T17:33:23.572Z,5.82
2022-11-05T17:35:52.480Z,4.78
2022-11-05T17:38:22.623Z,5.57
2022-11-05T17:40:51.828Z,5.40
2022-11-05T17:43:20.527Z,5.60
2022-11-05T17:45:51.938Z,6.70
2022-11-05T17:48:20.965Z,5.57
2022-11-05T17:50:50.753Z,5.45
2022-11-05T17:53:19.612Z,5.83
2022-11-05T17:55:48.344Z,6.50
2022-11-05T17:58:17.358Z,6.00
2022-11-05T18:00:47.980Z,6.65
2022-11-05T18:03:16.946Z,6.10
2022-11-05T18:05:45.362Z,6.30
2022-11-05T18:08:13.788Z,6.38
2022-11-05T18:10:42.552Z,6.18
2022-11-05T18:13:11.634Z,6.63
2022-11-05T18:15:41.234Z,6.78
2022-11-05T18:18:10.256Z,6.25
2022-11-05T18:20:38.831Z,6.10
2022-11-05T18:23:07.685Z,6.43
2022-11-05T18:25:36.285Z,6.13
2022-11-05T18:28:04.732Z,6.55
2022-11-05T18:30:33.863Z,7.43
2022-11-05T18:33:04.203Z,7.32
2022-11-05T18:35:32.578Z,7.55
2022-11-05T18:38:00.959Z,6.32
2022-11-05T18:40:29.607Z,7.10
2022-11-05T18:42:58.101Z,6.95
2022-11-05T18:45:29.717Z,7.05
2022-11-05T18:48:00.382Z,6.95
2022-11-05T18:50:29.420Z,7.70
2022-11-05T18:53:00.420Z,7.72
2022-11-05T18:55:28.965Z,6.63
2022-11-05T18:57:57.398Z,6.72
2022-11-05T19:00:25.729Z,7.43
2022-11-05T19:02:54.461Z,7.13
2022-11-05T19:05:31.145Z,7.22
2022-11-05T19:07:59.474Z,7.07
2022-11-05T19:10:29.377Z,7.57
2022-11-05T19:12:58.910Z,6.95
2022-11-05T19:15:27.381Z,6.95
2022-11-05T19:17:58.778Z,7.43
2022-11-05T19:20:28.091Z,6.28
2022-11-05T19:22:56.512Z,6.60
2022-11-05T19:25:25.152Z,6.32
2022-11-05T19:27:58.045Z,7.25
2022-11-05T19:30:26.430Z,7.40
2022-11-05T19:32:54.705Z,6.78
2022-11-05T19:35:27.208Z,7.07
2022-11-05T19:37:56.282Z,6.75
2022-11-05T19:40:27.288Z,7.28
2022-11-05T19:42:55.814Z,7.10
2022-11-05T19:45:43.688Z,7.63
2022-11-05T19:48:16.263Z,6.53
2022-11-05T19:50:47.811Z,7.07
2022-11-05T19:53:16.981Z,7.15
2022-11-05T19:55:45.409Z,6.80
2022-11-05T19:58:14.131Z,7.03
2022-11-05T20:00:43.049Z,7.32
2022-11-05T20:03:12.421Z,6.82
2022-11-05T20:05:40.913Z,6.28
2022-11-05T20:08:09.429Z,7.15
2022-11-05T20:10:38.176Z,6.72
2022-11-05T20:13:11.441Z,8.10
2022-11-05T20:15:46.317Z,6.82
2022-11-05T20:18:16.320Z,5.65
2022-11-05T20:20:45.354Z,6.28
2022-11-05T20:23:15.345Z,6.30
2022-11-05T20:25:43.724Z,6.53
2022-11-05T20:28:12.322Z,6.90
2022-11-05T20:30:40.791Z,6.45
2022-11-05T20:33:10.281Z,5.90
2022-11-05T20:35:39.490Z,6.32
2022-11-05T20:38:08.438Z,6.15
2022-11-05T20:40:39.742Z,7.18
2022-11-05T20:43:08.441Z,6.10
2022-11-05T20:45:38.241Z,6.32
2022-11-05T20:48:06.611Z,6.43
2022-11-05T20:50:35.233Z,6.72
2022-11-05T20:53:03.521Z,6.30
2022-11-05T20:55:46.481Z,6.70
2022-11-05T20:58:17.792Z,6.53
2022-11-05T21:00:51.445Z,6.05
2022-11-05T21:03:21.203Z,5.88
2022-11-05T21:05:54.544Z,6.07
2022-11-05T21:08:24.011Z,6.10
2022-11-05T21:10:52.552Z,6.03
2022-11-05T21:13:21.688Z,5.60
2022-11-05T21:15:52.527Z,6.20
2022-11-05T21:18:23.562Z,6.07
2022-11-05T21:20:53.165Z,6.18
2022-11-05T21:23:21.903Z,6.05
2022-11-05T21:25:50.225Z,5.80
2022-11-05T21:28:18.632Z,5.35
2022-11-05T21:30:49.047Z,5.68
2022-11-05T21:33:18.948Z,5.05
2022-11-05T21:35:51.481Z,6.43
2022-11-05T21:38:20.013Z,5.97
2022-11-05T21:40:49.220Z,5.38
2022-11-05T21:43:18.039Z,5.68
2022-11-05T21:45:46.575Z,5.63
2022-11-05T21:48:15.541Z,5.25
2022-11-05T21:51:02.751Z,5.85
2022-11-05T21:53:49.828Z,6.10
2022-11-05T21:56:42.880Z,5.78
2022-11-05T21:59:32.855Z,4.72
2022-11-05T22:02:02.185Z,6.40
2022-11-05T22:04:34.770Z,5.03
2022-11-05T22:07:04.483Z,4.55
2022-11-05T22:09:32.993Z,4.50
2022-11-05T22:12:03.021Z,4.88
2022-11-05T22:14:31.704Z,5.10
2022-11-05T22:17:00.117Z,5.32
2022-11-05T22:19:28.599Z,5.00
2022-11-05T22:21:57.249Z,4.57
2022-11-05T22:24:28.197Z,4.97
2022-11-05T22:26:56.766Z,4.63
2022-11-05T22:29:25.556Z,5.20
2022-11-05T22:31:54.141Z,4.65
2022-11-05T22:34:23.486Z,4.30
2022-11-05T22:36:52.864Z,4.50
2022-11-05T22:39:21.992Z,5.45
2022-11-05T22:41:54.036Z,4.47
2022-11-05T22:44:24.076Z,4.43
2022-11-05T22:46:53.707Z,4.78
2022-11-05T22:49:22.347Z,4.03
2022-11-05T22:51:51.604Z,4.15
2022-11-05T22:54:20.318Z,4.60
2022-11-05T22:56:50.742Z,4.03
2022-11-05T22:59:19.388Z,4.80
2022-11-05T23:01:49.630Z,4.28
2022-11-05T23:04:18.918Z,4.80
2022-11-05T23:07:06.727Z,4.20
2022-11-05T23:09:55.621Z,4.93
2022-11-05T23:12:30.488Z,4.30
2022-11-05T23:15:00.629Z,4.72
2022-11-05T23:17:47.957Z,4.40
2022-11-05T23:20:41.343Z,3.97
2022-11-05T23:23:29.428Z,4.40
2022-11-05T23:26:00.316Z,4.38
2022-11-05T23:28:28.703Z,3.55
2022-11-05T23:31:15.670Z,4.18
2022-11-05T23:33:43.992Z,4.63
2022-11-05T23:36:31.547Z,4.32
2022-11-05T23:39:00.413Z,4.55
2022-11-05T23:41:47.232Z,4.85
2022-11-05T23:44:34.233Z,4.50
2022-11-05T23:47:21.139Z,4.45
2022-11-05T23:49:49.442Z,4.63
2022-11-05T23:52:18.464Z,4.85
2022-11-05T23:54:47.255Z,4.78
2022-11-05T23:57:15.650Z,4.80
2022-11-05T23:59:44.246Z,4.55
